• Join FlightAware (Why Join?)
  • Login
  • US Flag 
08:59PM EST


 

Airport Tracker/Info


-or-


 

Live Flight TrackerFlight Track Log ✈ AFL150 ✈ 07-Apr-2014 ✈ UUEE / SVO - MUHA / HAV

Flight Track Log - Related Links

Times and Time Zones

All times are in EDT time to prevent confusion due to time zone crossing. See the AFL150 flight status page for this flight to view local times or setup timezone preferences in your user account.

Time Position Orientation Groundspeed Altitude Reporting Facility
EDT Latitude Longitude Course Direction KTS MPH feet Rate Location/Type
06:30AM 56.1459 36.9189 307° West  Level Estimated
06:31AM 56.2236 36.7614 312° West  Level FlightAware Approximate
06:32AM 56.3010 36.6034 311° West  Level FlightAware Approximate
06:33AM 56.3783 36.4446 311° West  Level FlightAware Approximate
06:34AM 56.4553 36.2853 311° West  Level FlightAware Approximate
06:35AM 56.5322 36.1253 311° West  Level FlightAware Approximate
06:36AM 56.6088 35.9646 311° West  Level FlightAware Approximate
06:37AM 56.6852 35.8033 311° West  Level FlightAware Approximate
06:38AM 56.7614 35.6413 311° West  Level FlightAware Approximate
06:39AM 56.8374 35.4787 311° West  Level FlightAware Approximate
06:40AM 56.9132 35.3154 310° West  Level FlightAware Approximate
06:41AM 56.9888 35.1515 310° West  Level FlightAware Approximate
06:42AM 57.0642 34.9868 310° West  Level FlightAware Approximate
06:43AM 57.1394 34.8215 310° West  Level FlightAware Approximate
06:44AM 57.2143 34.6556 310° West  Level FlightAware Approximate
06:45AM 57.2890 34.4890 310° West  Level FlightAware Approximate
06:46AM 57.3635 34.3217 310° West  Level FlightAware Approximate
06:47AM 57.4378 34.1537 309° West  Level FlightAware Approximate
06:48AM 57.5114 33.9790 306° West  Level FlightAware Approximate
06:49AM 57.5806 33.8031 306° West  Level FlightAware Approximate
06:50AM 57.6496 33.6264 306° West  Level FlightAware Approximate
06:51AM 57.7183 33.4491 306° West  Level FlightAware Approximate
06:52AM 57.7868 33.2711 306° West  Level FlightAware Approximate
06:53AM 57.8550 33.0925 306° West  Level FlightAware Approximate
06:54AM 57.9230 32.9131 306° West  Level FlightAware Approximate
06:55AM 57.9907 32.7331 305° West  Level FlightAware Approximate
06:56AM 58.0581 32.5524 305° West  Level FlightAware Approximate
06:56AM 56.4672 32.2171 278° West 424 488 36,000  Level FlightAware ADS-B
06:57AM 58.1253 32.3711 305° West  Level FlightAware Approximate
06:58AM 56.4958 31.8530 278° West 423 487 36,000  Level FlightAware ADS-B (EVDA / DGP)
06:59AM 56.5143 31.6109 278° West 422 486 36,000  Level FlightAware ADS-B (EVDA / DGP)
07:01AM 56.5327 31.3615 278° West 422 486 36,000  Level FlightAware ADS-B
07:02AM 56.5617 31.1389 290° West 416 479 36,000  Level FlightAware ADS-B
07:03AM 56.6131 30.9521 303° West 412 474 36,000  Level FlightAware ADS-B
07:04AM 56.6856 30.7871 311° West 411 473 36,000  Level FlightAware ADS-B
07:05AM 56.7503 30.6315 304° West 410 472 36,000  Level FlightAware ADS-B
07:06AM 56.8183 30.4508 304° West 409 471 36,000  Level FlightAware ADS-B
07:07AM 56.8783 30.2885 304° West 411 473 36,000  Level FlightAware ADS-B
07:08AM 56.9449 30.1072 304° West 412 474 36,000  Level FlightAware ADS-B
07:09AM 57.0092 29.9308 304° West 414 476 36,000  Level FlightAware ADS-B
07:09AM 57.0419 29.8404 304° West 416 479 36,000  Level FlightAware ADS-B (EVDA / DGP)
07:10AM 57.1165 29.6329 303° West 417 480 36,000  Level FlightAware ADS-B (EVDA / DGP)
07:12AM 57.1942 29.4148 303° West 418 481 36,000  Level FlightAware ADS-B (EVDA / DGP)
07:13AM 57.2515 29.2525 303° West 416 479 36,000  Level FlightAware ADS-B (EVDA / DGP)
07:14AM 57.3205 29.0570 303° West 415 478 36,000  Level FlightAware ADS-B (EVDA / DGP)
07:15AM 57.3826 28.8792 303° West 416 479 36,000  Level FlightAware ADS-B (EVDA / DGP)
07:16AM 57.4485 28.6888 303° West 411 473 36,000  Level FlightAware ADS-B (EVDA / DGP)
07:17AM 57.5087 28.5136 303° West 409 471 36,000  Level FlightAware ADS-B (EVDA / DGP)
07:18AM 57.5679 28.3399 302° West 408 470 36,000  Level FlightAware ADS-B (EVDA / DGP)
07:19AM 57.6271 28.1651 302° West 409 471 36,000  Level FlightAware ADS-B (EVDA / DGP)
07:20AM 57.6977 27.9557 302° West 410 472 36,000  Level FlightAware ADS-B
07:21AM 57.7572 27.7772 302° West 408 470 36,000  Level FlightAware ADS-B
07:22AM 57.8187 27.5918 302° West 407 468 36,000  Level FlightAware ADS-B
07:23AM 57.8626 27.4025 291° West 413 475 36,000  Level FlightAware ADS-B
07:24AM 57.9051 27.1918 291° West 414 476 36,000  Level FlightAware ADS-B
07:25AM 57.9446 26.9958 291° West 409 471 36,000  Level FlightAware ADS-B
07:26AM 57.9849 26.7933 290° West 407 468 36,000  Level FlightAware ADS-B
07:27AM 58.0176 26.6269 290° West 404 465 36,000  Level FlightAware ADS-B
07:27AM 58.0458 26.4833 290° West 403 464 36,000  Level FlightAware ADS-B (EVDA / DGP)
07:29AM 58.0942 26.2331 290° West 403 464 36,000  Level FlightAware ADS-B (EVDA / DGP)
07:30AM 58.1325 26.0333 290° West 402 463 36,000  Level FlightAware ADS-B (EVDA / DGP)
07:31AM 58.1700 25.8349 290° West 402 463 36,000  Level FlightAware ADS-B (EVDA / DGP)
07:32AM 58.2053 25.6454 290° West 401 461 36,000  Level FlightAware ADS-B (EVDA / DGP)
07:33AM 58.2421 25.4483 289° West 403 464 36,000  Level FlightAware ADS-B (EVDA / DGP)
07:33AM 58.2728 25.2810 289° West 405 466 36,000  Level FlightAware ADS-B (EVDA / DGP)
07:34AM 58.2906 25.1838 289° West 406 467 36,000  Level FlightAware ADS-B
07:35AM 58.3171 25.0380 289° West 407 468 36,000  Level FlightAware ADS-B (EVDA / DGP)
07:41AM 58.3171 25.0380 286° West 409 471 36,000  Level FlightAware ADS-B (EVDA / DGP)
07:51AM 58.8219 21.6043 284° West 416 479 36,000  Level FlightAware ADS-B (ESKB)
07:54AM 58.8986 20.9963 284° West 417 480 36,000  Level FlightAware ADS-B (ESKB)
07:55AM 58.9455 20.7390 287° West 418 481 36,000  Level FlightAware ADS-B (ESKB)
07:57AM 59.0073 20.3555 287° West 420 483 36,000  Level FlightAware ADS-B (ESKB)
07:58AM 59.0286 20.2213 287° West 420 483 36,000  Level FlightAware ADS-B (ESKB)
07:58AM 59.0533 20.0651 287° West 419 482 36,000  Level FlightAware ADS-B (ESKB)
07:59AM 59.0734 19.9368 287° West 421 484 36,000  Level FlightAware ADS-B (ESKB)
08:00AM 59.0955 19.7956 287° West 423 487 36,000  Level FlightAware ADS-B (ESKB)
08:00AM 59.1201 19.6365 287° West 425 489 36,000  Level FlightAware ADS-B (ESKB)
08:01AM 59.1428 19.4882 287° West 427 491 36,000  Level FlightAware ADS-B (ESKB)
08:02AM 59.1653 19.3409 287° West 427 491 36,000  Level FlightAware ADS-B (ESKB)
08:02AM 59.1876 19.1942 286° West 428 493 36,000  Level FlightAware ADS-B (ESKB)
08:03AM 59.2095 19.0494 286° West 428 493 36,000  Level FlightAware ADS-B (ESKB)
08:04AM 59.2314 18.9024 286° West 430 495 36,000  Level FlightAware ADS-B (ESKB)
08:04AM 59.2518 18.7640 286° West 431 496 36,000  Level FlightAware ADS-B (ESKB)
08:05AM 59.2756 18.6017 286° West 432 497 36,000  Level FlightAware ADS-B (ESKB)
08:06AM 59.2975 18.4508 286° West 432 497 36,000  Level FlightAware ADS-B (ESKB)
08:06AM 59.3170 18.3154 286° West 433 498 36,000  Level FlightAware ADS-B (ESKB)
08:07AM 59.3403 18.1525 286° West 434 499 36,000  Level FlightAware ADS-B (ESKB)
08:08AM 59.3619 18.0002 286° West 435 501 36,000  Level FlightAware ADS-B (ESKB)
08:08AM 59.3835 17.8454 285° West 436 502 36,000  Level FlightAware ADS-B (ESKB)
08:09AM 59.4046 17.6937 285° West 436 502 36,000  Level FlightAware ADS-B (ESKB)
08:10AM 59.4260 17.5377 285° West 436 502 36,000  Level FlightAware ADS-B (ESKB)
08:10AM 59.4435 17.4093 285° West 436 502 36,000  Level FlightAware ADS-B (ESKB)
08:11AM 59.4592 17.2916 285° West 434 499 36,000  Level FlightAware ADS-B (ESKB)
08:12AM 59.4874 17.0795 285° West 435 501 36,000  Level FlightAware ADS-B (ESKB)
08:13AM 59.5164 16.8605 284° West 437 503 36,000  Level FlightAware ADS-B (ESKB)
08:13AM 59.5366 16.7054 284° West 439 505 36,000  Level FlightAware ADS-B (ESKB)
08:14AM 59.5570 16.5464 284° West 440 506 36,000  Level FlightAware ADS-B (ESKB)
08:15AM 59.5863 16.3173 284° West 440 506 36,000  Level FlightAware ADS-B (ESKB)
08:17AM 59.6489 15.9601 289° West  Level Estimated
08:18AM 59.6868 15.7407 289° West  Level Estimated
08:19AM 59.7243 15.5209 289° West  Level Estimated
08:20AM 59.7614 15.3005 289° West  Level Estimated
08:21AM 59.7982 15.0797 288° West  Level Estimated
08:22AM 59.8346 14.8583 288° West  Level Estimated
08:23AM 59.8706 14.6365 288° West  Level Estimated
08:24AM 59.9062 14.4142 288° West  Level Estimated
08:25AM 59.9415 14.1915 288° West  Level Estimated
08:26AM 59.9764 13.9682 287° West  Level Estimated
08:27AM 60.0109 13.7445 287° West  Level Estimated
08:28AM 60.0451 13.5204 287° West  Level Estimated
08:29AM 60.0788 13.2957 287° West  Level Estimated
08:30AM 60.1122 13.0706 287° West  Level Estimated
08:31AM 60.1452 12.8451 286° West  Level Estimated
08:32AM 60.1778 12.6191 286° West  Level Estimated
08:33AM 60.2100 12.3926 286° West  Level Estimated
08:34AM 60.2419 12.1658 286° West  Level Estimated
08:35AM 60.2733 11.9384 286° West  Level Estimated
08:36AM 60.3044 11.7107 285° West  Level Estimated
08:37AM 60.3350 11.4825 285° West  Level Estimated
08:38AM 60.3653 11.2539 285° West  Level Estimated
08:39AM 60.3952 11.0248 285° West  Level Estimated
08:40AM 60.4247 10.7954 285° West  Level Estimated
08:41AM 60.4538 10.5655 284° West  Level Estimated
08:42AM 60.4825 10.3352 284° West  Level Estimated
08:43AM 60.5108 10.1045 284° West  Level Estimated
08:44AM 60.5387 9.8735 284° West  Level Estimated
08:45AM 60.5662 9.6420 284° West  Level Estimated
08:46AM 60.5933 9.4101 283° West  Level Estimated
08:47AM 60.6200 9.1778 283° West  Level Estimated
08:48AM 60.6463 8.9452 283° West  Level Estimated
08:49AM 60.6722 8.7122 283° West  Level Estimated
08:50AM 60.6977 8.4788 283° West  Level Estimated
08:51AM 60.7227 8.2450 282° West  Level Estimated
08:52AM 60.7474 8.0109 282° West  Level Estimated
08:53AM 60.7717 7.7765 282° West  Level Estimated
08:54AM 60.7955 7.5416 282° West  Level Estimated
08:55AM 60.8190 7.3064 282° West  Level Estimated
08:56AM 60.8420 7.0709 281° West  Level Estimated
08:57AM 60.8646 6.8351 281° West  Level Estimated
08:58AM 60.8868 6.5989 281° West  Level Estimated
08:59AM 60.9086 6.3624 281° West  Level Estimated
09:00AM 60.9300 6.1255 281° West  Level Estimated
09:01AM 60.9510 5.8884 280° West  Level Estimated
09:02AM 60.9715 5.6509 280° West  Level Estimated
09:03AM 60.9916 5.4132 280° West  Level Estimated
09:04AM 61.0113 5.1751 280° West  Level Estimated
09:05AM 61.0306 4.9368 280° West  Level Estimated
09:06AM 61.0495 4.6981 279° West  Level Estimated
09:07AM 61.0679 4.4592 279° West  Level Estimated
09:08AM 61.0859 4.2200 279° West  Level Estimated
09:09AM 61.1035 3.9806 279° West  Level Estimated
09:10AM 61.1207 3.7408 279° West  Level Estimated
09:11AM 61.1375 3.5008 278° West  Level Estimated
09:12AM 61.1538 3.2606 278° West  Level Estimated
09:13AM 61.1697 3.0201 278° West  Level Estimated
09:14AM 61.1852 2.7794 278° West  Level Estimated
09:15AM 61.2002 2.5385 277° West  Level Estimated
09:16AM 61.2148 2.2973 277° West  Level Estimated
09:17AM 61.2290 2.0559 277° West  Level Estimated
09:18AM 61.2428 1.8142 277° West  Level Estimated
09:19AM 61.2561 1.5724 277° West  Level Estimated
09:20AM 61.2690 1.3304 276° West  Level Estimated
09:21AM 61.2815 1.0882 276° West  Level Estimated
09:22AM 61.2935 0.8458 276° West  Level Estimated
09:23AM 61.3051 0.6032 276° West  Level Estimated
09:24AM 61.3163 0.3604 276° West  Level Estimated
09:25AM 61.3270 0.1175 275° West  Level Estimated
09:26AM 61.3373 -0.1256 275° West  Level Estimated
09:27AM 61.3472 -0.3689 275° West  Level Estimated
09:28AM 61.3566 -0.6123 275° West  Level Estimated
09:29AM 61.3656 -0.8559 275° West  Level Estimated
09:30AM 61.3742 -1.0996 274° West  Level Estimated
09:31AM 61.3823 -1.3434 274° West  Level Estimated
09:32AM 61.3900 -1.5873 274° West  Level Estimated
09:33AM 61.3973 -1.8314 274° West  Level Estimated
09:34AM 61.4041 -2.0756 273° West  Level Estimated
09:35AM 61.4104 -2.3198 273° West  Level Estimated
09:36AM 61.4164 -2.5642 273° West  Level Estimated
09:37AM 61.4219 -2.8087 273° West  Level Estimated
09:38AM 61.4269 -3.0532 273° West  Level Estimated
09:39AM 61.4316 -3.2978 272° West  Level Estimated
09:40AM 61.4357 -3.5425 272° West  Level Estimated
09:41AM 61.4395 -3.7872 272° West  Level Estimated
09:42AM 61.4428 -4.0321 272° West  Level Estimated
09:43AM 61.4457 -4.2769 272° West  Level Estimated
09:44AM 61.4481 -4.5218 271° West  Level Estimated
09:45AM 61.4501 -4.7667 271° West  Level Estimated
09:46AM 61.4516 -5.0117 271° West  Level Estimated
09:47AM 61.4528 -5.2567 271° West  Level Estimated
09:48AM 61.4534 -5.5016 270° West  Level Estimated
09:49AM 61.4537 -5.7467 270° West  Level Estimated
09:50AM 61.4534 -5.9917 270° West  Level Estimated
09:51AM 61.4528 -6.2366 270° West  Level Estimated
09:52AM 61.4517 -6.4816 270° West  Level Estimated
09:53AM 61.4502 -6.7266 269° West  Level Estimated
09:54AM 61.4482 -6.9715 269° West  Level Estimated
09:55AM 61.4458 -7.2164 269° West  Level Estimated
09:56AM 61.4430 -7.4613 269° West  Level Estimated
09:57AM 61.4397 -7.7061 268° West  Level Estimated
09:58AM 61.4360 -7.9508 268° West  Level Estimated
09:59AM 61.4318 -8.1955 268° West  Level Estimated
10:00AM 61.4272 -8.4401 268° West  Level Estimated
10:01AM 61.4221 -8.6847 268° West  Level Estimated
10:02AM 61.4167 -8.9291 267° West  Level Estimated
10:03AM 61.4108 -9.1735 267° West  Level Estimated
10:04AM 61.4044 -9.4178 267° West  Level Estimated
10:05AM 61.3976 -9.6620 267° West  Level Estimated
10:06AM 61.3904 -9.9060 267° West  Level Estimated
10:07AM 61.3827 -10.1500 266° West  Level Estimated
10:08AM 61.3746 -10.3938 266° West  Level Estimated
10:09AM 61.3661 -10.6375 266° West  Level Estimated
10:10AM 61.3571 -10.8811 266° West  Level Estimated
10:11AM 61.3477 -11.1245 265° West  Level Estimated
10:12AM 61.3378 -11.3678 265° West  Level Estimated
10:13AM 61.3276 -11.6109 265° West  Level Estimated
10:14AM 61.3168 -11.8538 265° West  Level Estimated
10:15AM 61.3057 -12.0966 265° West  Level Estimated
10:16AM 61.2941 -12.3392 264° West  Level Estimated
10:17AM 61.2821 -12.5816 264° West  Level Estimated
10:18AM 61.2697 -12.8238 264° West  Level Estimated
10:19AM 61.2568 -13.0659 264° West  Level Estimated
10:20AM 61.2435 -13.3077 264° West  Level Estimated
10:21AM 61.2297 -13.5493 263° West  Level Estimated
10:22AM 61.2156 -13.7908 263° West  Level Estimated
10:23AM 61.2010 -14.0319 263° West  Level Estimated
10:24AM 61.1860 -14.2729 263° West  Level Estimated
10:25AM 61.1705 -14.5136 263° West  Level Estimated
10:26AM 61.1546 -14.7541 262° West  Level Estimated
10:27AM 61.1383 -14.9944 262° West  Level Estimated
10:28AM 61.1216 -15.2344 262° West  Level Estimated
10:29AM 61.1044 -15.4741 262° West  Level Estimated
10:30AM 61.0869 -15.7136 261° West  Level Estimated
10:31AM 61.0689 -15.9528 261° West  Level Estimated
10:32AM 61.0504 -16.1917 261° West  Level Estimated
10:33AM 61.0316 -16.4304 261° West  Level Estimated
10:34AM 61.0123 -16.6688 261° West  Level Estimated
10:35AM 60.9926 -16.9068 260° West  Level Estimated
10:36AM 60.9725 -17.1446 260° West  Level Estimated
10:37AM 60.9520 -17.3821 260° West  Level Estimated
10:38AM 60.9311 -17.6192 260° West  Level Estimated
10:39AM 60.9097 -17.8561 260° West  Level Estimated
10:40AM 60.8880 -18.0926 259° West  Level Estimated
10:41AM 60.8658 -18.3288 259° West  Level Estimated
10:42AM 60.8432 -18.5647 259° West  Level Estimated
10:43AM 60.8202 -18.8002 259° West  Level Estimated
10:44AM 60.7967 -19.0354 259° West  Level Estimated
10:45AM 60.7729 -19.2703 258° West  Level Estimated
10:46AM 60.7486 -19.5048 258° West  Level Estimated
10:47AM 60.7240 -19.7389 258° West  Level Estimated
10:48AM 60.6989 -19.9727 258° West  Level Estimated
10:49AM 60.6735 -20.2061 258° West  Level Estimated
10:50AM 60.6476 -20.4391 257° West  Level Estimated
10:51AM 60.6213 -20.6718 257° West  Level Estimated
10:52AM 60.5947 -20.9041 257° West  Level Estimated
10:53AM 60.5676 -21.1360 257° West  Level Estimated
10:54AM 60.5401 -21.3675 257° West  Level Estimated
10:55AM 60.5122 -21.5986 256° West  Level Estimated
10:56AM 60.4839 -21.8293 256° West  Level Estimated
10:57AM 60.4552 -22.0596 256° West  Level Estimated
10:58AM 60.4262 -22.2895 256° West  Level Estimated
10:59AM 60.3967 -22.5189 256° West  Level Estimated
11:00AM 60.3668 -22.7480 255° West  Level Estimated
11:01AM 60.3366 -22.9766 255° West  Level Estimated
11:02AM 60.3059 -23.2048 255° West  Level Estimated
11:03AM 60.2749 -23.4326 255° West  Level Estimated
11:04AM 60.2435 -23.6600 255° West  Level Estimated
11:05AM 60.2117 -23.8869 254° West  Level Estimated
11:06AM 60.1795 -24.1133 254° West  Level Estimated
11:07AM 60.1469 -24.3394 254° West  Level Estimated
11:08AM 60.1139 -24.5649 254° West  Level Estimated
11:09AM 60.0805 -24.7900 254° West  Level Estimated
11:10AM 60.0468 -25.0147 253° West  Level Estimated
11:11AM 60.0127 -25.2389 253° West  Level Estimated
11:12AM 59.9782 -25.4626 253° West  Level Estimated
11:13AM 59.9433 -25.6859 253° West  Level Estimated
11:14AM 59.9081 -25.9087 253° West  Level Estimated
11:15AM 59.8724 -26.1310 252° West  Level Estimated
11:16AM 59.8364 -26.3528 252° West  Level Estimated
11:17AM 59.8001 -26.5742 252° West  Level Estimated
11:18AM 59.7633 -26.7951 252° West  Level Estimated
11:19AM 59.7262 -27.0154 252° West  Level Estimated
11:20AM 59.6887 -27.2353 251° West  Level Estimated
11:21AM 59.6509 -27.4547 251° West  Level Estimated
11:22AM 59.6127 -27.6736 251° West  Level Estimated
11:23AM 59.5741 -27.8920 251° West  Level Estimated
11:24AM 59.5352 -28.1099 251° West  Level Estimated
11:25AM 59.4959 -28.3273 250° West  Level Estimated
11:26AM 59.4562 -28.5442 250° West  Level Estimated
11:27AM 59.4162 -28.7606 250° West  Level Estimated
11:28AM 59.3758 -28.9764 250° West  Level Estimated
11:29AM 59.3351 -29.1918 250° West  Level Estimated
11:30AM 59.2940 -29.4066 250° West  Level Estimated
11:31AM 59.2525 -29.6209 249° West  Level Estimated
11:32AM 59.2108 -29.8347 249° West  Level Estimated
11:33AM 59.1686 -30.0480 249° West  Level Estimated
11:34AM 59.1261 -30.2607 249° West  Level Estimated
11:35AM 59.0833 -30.4729 249° West  Level Estimated
11:36AM 59.0401 -30.6846 248° West  Level Estimated
11:37AM 58.9966 -30.8957 248° West  Level Estimated
11:38AM 58.9527 -31.1063 248° West  Level Estimated
11:39AM 58.9085 -31.3164 248° West  Level Estimated
11:40AM 58.8640 -31.5259 248° West  Level Estimated
11:41AM 58.8191 -31.7349 248° West  Level Estimated
11:42AM 58.7739 -31.9434 247° West  Level Estimated
11:42AM 65.0000 -40.0000 241° Southwest 449 517 36,000  Level ETMS Enhanced Traffic Management System
11:43AM 58.7283 -32.1513 247° West  Level Estimated
11:44AM 58.6824 -32.3586 247° West  Level Estimated
11:45AM 58.6362 -32.5654 247° West  Level Estimated
11:46AM 58.5896 -32.7717 247° West  Level Estimated
11:47AM 58.5427 -32.9774 246° West  Level Estimated
11:48AM 64.3663 -42.5152 238° Southwest 449 517 36,000  Level FlightAware Transoceanic
11:49AM 64.3006 -42.7603 238° Southwest 449 517 36,000  Level FlightAware Transoceanic
11:50AM 64.2345 -43.0042 238° Southwest 449 517 36,000  Level FlightAware Transoceanic
11:51AM 64.1680 -43.2469 238° Southwest 449 517 36,000  Level FlightAware Transoceanic
11:52AM 64.1011 -43.4884 237° Southwest 449 517 36,000  Level FlightAware Transoceanic
11:53AM 64.0338 -43.7288 237° Southwest 449 517 36,000  Level FlightAware Transoceanic
11:54AM 63.9661 -43.9681 237° Southwest 449 517 36,000  Level FlightAware Transoceanic
11:55AM 63.8980 -44.2062 237° Southwest 449 517 36,000  Level FlightAware Transoceanic
11:56AM 63.8296 -44.4431 237° Southwest 449 517 36,000  Level FlightAware Transoceanic
11:57AM 63.7607 -44.6789 236° Southwest 449 517 36,000  Level FlightAware Transoceanic
11:58AM 63.6915 -44.9135 236° Southwest 449 517 36,000  Level FlightAware Transoceanic
11:59AM 63.6218 -45.1470 236° Southwest 449 517 36,000  Level FlightAware Transoceanic
12:00PM 63.5518 -45.3793 236° Southwest 449 517 36,000  Level FlightAware Transoceanic
12:01PM 63.4815 -45.6105 236° Southwest 449 517 36,000  Level FlightAware Transoceanic
12:02PM 63.4107 -45.8405 235° Southwest 449 517 36,000  Level FlightAware Transoceanic
12:03PM 63.3396 -46.0695 235° Southwest 449 517 36,000  Level FlightAware Transoceanic
12:04PM 63.2681 -46.2972 235° Southwest 449 517 36,000  Level FlightAware Transoceanic
12:05PM 63.1963 -46.5239 235° Southwest 449 517 36,000  Level FlightAware Transoceanic
12:06PM 63.1241 -46.7494 235° Southwest 449 517 36,000  Level FlightAware Transoceanic
12:07PM 63.0516 -46.9738 234° Southwest 449 517 36,000  Level FlightAware Transoceanic
12:08PM 62.9786 -47.1971 234° Southwest 449 517 36,000  Level FlightAware Transoceanic
12:09PM 62.9054 -47.4193 234° Southwest 449 517 36,000  Level FlightAware Transoceanic
12:10PM 62.8318 -47.6404 234° Southwest 449 517 36,000  Level FlightAware Transoceanic
12:11PM 62.7578 -47.8603 234° Southwest 449 517 36,000  Level FlightAware Transoceanic
12:12PM 62.6836 -48.0792 233° Southwest 449 517 36,000  Level FlightAware Transoceanic
12:13PM 62.6089 -48.2970 233° Southwest 449 517 36,000  Level FlightAware Transoceanic
12:14PM 62.5340 -48.5136 233° Southwest 449 517 36,000  Level FlightAware Transoceanic
12:15PM 62.4586 -48.7292 233° Southwest 449 517 36,000  Level FlightAware Transoceanic
12:16PM 62.3830 -48.9437 233° Southwest 449 517 36,000  Level FlightAware Transoceanic
12:17PM 62.3071 -49.1571 232° Southwest 449 517 36,000  Level FlightAware Transoceanic
12:18PM 62.2308 -49.3694 232° Southwest 449 517 36,000  Level FlightAware Transoceanic
12:19PM 62.1542 -49.5807 232° Southwest 449 517 36,000  Level FlightAware Transoceanic
12:20PM 62.0772 -49.7909 232° Southwest 449 517 36,000 -120 Level FlightAware Transoceanic
12:21PM 61.9939 -49.9661 225° Southwest  Level Estimated
12:22PM 61.9102 -50.1404 225° Southwest  Level Estimated
12:23PM 61.8264 -50.3137 224° Southwest  Level Estimated
12:24PM 61.7424 -50.4861 224° Southwest  Level Estimated
12:25PM 61.6581 -50.6576 224° Southwest  Level Estimated
12:26PM 61.5736 -50.8281 224° Southwest  Level Estimated
12:27PM 61.4889 -50.9977 224° Southwest  Level Estimated
12:28PM 61.4040 -51.1663 224° Southwest  Level Estimated
12:29PM 61.3189 -51.3341 223° Southwest  Level Estimated
12:30PM 61.2336 -51.5009 223° Southwest  Level Estimated
12:31PM 61.1481 -51.6669 223° Southwest  Level Estimated
12:32PM 61.0624 -51.8319 223° Southwest  Level Estimated
12:33PM 60.9764 -51.9961 223° Southwest  Level Estimated
12:34PM 60.8903 -52.1593 223° Southwest  Level Estimated
12:35PM 60.8040 -52.3217 223° Southwest  Level Estimated
12:36PM 60.7175 -52.4832 222° Southwest  Level Estimated
12:37PM 60.6308 -52.6438 222° Southwest  Level Estimated
12:38PM 60.5439 -52.8036 222° Southwest  Level Estimated
12:39PM 60.4568 -52.9625 222° Southwest  Level Estimated
12:40PM 60.3695 -53.1206 222° Southwest  Level Estimated
12:41PM 60.2821 -53.2778 222° Southwest  Level Estimated
12:42PM 60.1945 -53.4342 222° Southwest  Level Estimated
12:43PM 60.1066 -53.5897 221° Southwest  Level Estimated
12:44PM 60.0186 -53.7445 221° Southwest  Level Estimated
12:45PM 59.9304 -53.8984 221° Southwest  Level Estimated
12:46PM 59.8421 -54.0514 221° Southwest  Level Estimated
12:47PM 59.7535 -54.2037 221° Southwest  Level Estimated
12:48PM 59.6648 -54.3552 221° Southwest  Level Estimated
12:49PM 59.5764 -54.5050 221° Southwest  Level Estimated
12:50PM 59.4879 -54.6540 221° Southwest  Level Estimated
12:51PM 59.3992 -54.8022 220° Southwest  Level Estimated
12:52PM 59.3103 -54.9496 220° Southwest  Level Estimated
12:53PM 59.2213 -55.0963 220° Southwest  Level Estimated
12:54PM 59.1321 -55.2422 220° Southwest  Level Estimated
12:54PM 45.2500 -64.5667 219° Southwest 560 644 33,000  Level Gander Center
12:55PM 59.0427 -55.3874 220° Southwest  Level Estimated
12:55PM 45.3000 -64.3833 69° East 550 633 33,000  Level Gander Center
12:56PM 58.9532 -55.5318 220° Southwest  Level Estimated
12:56PM 45.3667 -64.1833 65° Northeast 550 633 33,000  Level Gander Center
12:57PM 58.8635 -55.6754 220° Southwest  Level Estimated
12:57PM 45.4333 -63.9667 66° East 550 633 33,000  Level Gander Center
12:58PM 58.7736 -55.8183 220° Southwest  Level Estimated
12:58PM 45.5000 -63.7833 63° Northeast 550 633 33,000  Level Gander Center
12:59PM 58.6836 -55.9605 219° Southwest  Level Estimated
12:59PM 45.5500 -63.5667 72° East 550 633 33,000  Level Gander Center
01:00PM 45.6167 -63.3833 62° Northeast 540 621 33,000  Level Gander Center
01:02PM 45.7333 -62.9833 67° East 540 621 33,000  Level Gander Center
01:03PM 45.8000 -62.7833 64° Northeast 530 610 33,000  Level Gander Center
01:04PM 45.8500 -62.6000 69° East 530 610 33,000  Level Gander Center
01:05PM 45.9167 -62.4167 62° Northeast 530 610 33,000  Level Gander Center
01:06PM 45.9667 -62.2167 70° East 530 610 33,000  Level Gander Center
01:07PM 46.0167 -62.0000 72° East 530 610 33,000  Level Gander Center
01:08PM 46.1000 -61.8333 54° Northeast 530 610 33,000  Level Gander Center
01:09PM 46.1500 -61.6167 72° East 530 610 33,000  Level Gander Center
01:10PM 46.2000 -61.4333 68° East 520 598 33,000  Level Gander Center
01:11PM 46.2667 -61.2333 64° Northeast 520 598 33,000  Level Gander Center
01:12PM 46.3167 -61.0333 70° East 520 598 33,000  Level Gander Center
01:13PM 46.3667 -60.8500 68° East 520 598 33,000  Level Gander Center
01:14PM 46.4333 -60.6500 64° Northeast 520 598 33,000  Level Gander Center
01:15PM 46.4667 -60.4500 76° East 520 598 33,000  Level Gander Center
01:16PM 46.5167 -60.2667 68° East 520 598 33,000  Level Gander Center
01:17PM 46.5833 -60.0667 64° Northeast 520 598 33,000  Level Gander Center
01:18PM 46.6333 -59.8667 70° East 520 598 33,000  Level Gander Center
01:19PM 46.6833 -59.6833 68° East 510 587 33,000  Level Gander Center
01:20PM 46.7333 -59.4833 70° East 510 587 33,000  Level Gander Center
01:21PM 46.8000 -59.2833 64° Northeast 510 587 33,000  Level Gander Center
01:23PM 46.8833 -58.9167 71° East 510 587 33,000  Level Gander Center
01:24PM 46.9500 -58.7167 64° Northeast 510 587 33,000  Level Gander Center
01:25PM 47.0000 -58.5167 70° East 510 587 33,000  Level Gander Center
01:26PM 47.0333 -58.3167 76° East 510 587 33,000  Level Gander Center
01:27PM 47.1000 -58.1167 64° Northeast 510 587 33,000  Level Gander Center
01:28PM 47.1500 -57.9167 70° East 510 587 33,000  Level Gander Center
01:29PM 47.1833 -57.7167 76° East 520 598 33,000  Level Gander Center
01:30PM 47.2500 -57.5500 59° Northeast 510 587 33,000  Level Gander Center
01:31PM 47.3000 -57.3333 71° East 510 587 33,000  Level Gander Center
01:32PM 47.3500 -57.1333 70° East 520 598 33,000  Level Gander Center
01:33PM 47.4000 -56.9333 70° East 520 598 33,000  Level Gander Center
01:34PM 47.4500 -56.7333 70° East 520 598 33,000  Level Gander Center
01:35PM 47.5000 -56.5667 66° East 520 598 33,000  Level Gander Center
01:36PM 47.5500 -56.3333 72° East 520 598 33,000  Level Gander Center
01:37PM 47.6167 -56.1500 62° Northeast 510 587 33,000  Level Gander Center
01:38PM 47.6500 -55.9500 76° East 510 587 33,000  Level Gander Center
01:39PM 47.7167 -55.7500 64° Northeast 510 587 33,000  Level Gander Center
01:40PM 47.7500 -55.5333 77° East 510 587 33,000  Level Gander Center
01:41PM 47.8000 -55.3667 66° East 510 587 33,000  Level Gander Center
01:42PM 47.8667 -55.1500 65° Northeast 510 587 33,000  Level Gander Center
01:43PM 47.9000 -54.9667 75° East 510 587 33,000  Level Gander Center
01:45PM 48.0000 -54.5667 69° East 510 587 33,000  Level Gander Center
01:46PM 48.0500 -54.3500 71° East 520 598 33,000  Level Gander Center
01:47PM 48.0833 -54.1500 76° East 520 598 33,000  Level Gander Center
01:48PM 48.1333 -53.9333 71° East 520 598 33,000  Level Gander Center
02:47PM 47.4460 -67.7187 201° Southwest 382 440 36,000  Climbing FlightAware ADS-B
02:48PM 47.3914 -67.7497 201° Southwest 380 437 36,000  Level FlightAware ADS-B
02:49PM 47.2997 -67.8244 211° Southwest 358 412 36,000  Level FlightAware ADS-B
02:50PM 47.2139 -67.8990 211° Southwest 360 414 36,000  Level FlightAware ADS-B
02:51PM 47.1364 -67.9660 211° Southwest 360 414 36,000  Level FlightAware ADS-B
02:51PM 47.0892 -68.0067 211° Southwest 361 415 36,000  Level FlightAware ADS-B
02:52PM 47.0435 -68.0460 211° Southwest 361 415 36,000  Level FlightAware ADS-B
02:52PM 46.9936 -68.0888 210° Southwest 360 414 36,000  Level FlightAware ADS-B
02:53PM 46.9479 -68.1281 210° Southwest 360 414 36,000  Level FlightAware ADS-B
02:53PM 46.9006 -68.1685 210° Southwest 358 412 36,000  Level FlightAware ADS-B
02:54PM 46.7988 -68.2553 210° Southwest 357 411 36,000  Level FlightAware ADS-B
02:55PM 46.7572 -68.2907 210° Southwest 358 412 36,000  Level FlightAware ADS-B
02:56PM 46.7022 -68.3373 210° Southwest 359 413 36,000  Level FlightAware ADS-B
02:56PM 46.6632 -68.3703 210° Southwest 359 413 36,000  Level FlightAware ADS-B
02:57PM 46.5988 -68.4246 210° Southwest 359 413 36,000  Level FlightAware ADS-B
02:57PM 46.5555 -68.4611 210° Southwest 356 410 36,000  Level FlightAware ADS-B
02:58PM 46.4989 -68.5087 210° Southwest 355 409 36,000  Level FlightAware ADS-B
02:59PM 46.4377 -68.5601 210° Southwest 355 409 36,000  Level FlightAware ADS-B
02:59PM 46.3957 -68.5953 210° Southwest 355 409 36,000  Level FlightAware ADS-B
03:00PM 46.3428 -68.6395 210° Southwest 357 411 36,000  Level FlightAware ADS-B
03:00PM 46.2884 -68.6849 210° Southwest 359 413 36,000  Level FlightAware ADS-B
03:01PM 46.2407 -68.7245 210° Southwest 357 411 36,000  Level FlightAware ADS-B
03:02PM 46.1902 -68.7664 210° Southwest 356 410 36,000  Level FlightAware ADS-B
03:02PM 46.1468 -68.8023 210° Southwest 357 411 36,000  Level FlightAware ADS-B
03:03PM 46.1014 -68.8399 210° Southwest 356 410 36,000  Level FlightAware ADS-B
03:03PM 46.0432 -68.8879 210° Southwest 358 412 36,000  Level FlightAware ADS-B
03:04PM 45.9973 -68.9257 210° Southwest 358 412 36,000  Level FlightAware ADS-B
03:04PM 45.9542 -68.9611 210° Southwest 357 411 36,000  Level FlightAware ADS-B
03:05PM 45.8948 -69.0098 210° Southwest 358 412 36,000  Level FlightAware ADS-B
03:06PM 45.8510 -69.0456 210° Southwest 359 413 36,000  Level FlightAware ADS-B
03:06PM 45.7900 -69.0954 210° Southwest 358 412 36,000  Level FlightAware ADS-B
03:07PM 45.7463 -69.1309 210° Southwest 356 410 36,000  Level FlightAware ADS-B
03:07PM 45.6859 -69.1800 210° Southwest 354 407 36,000  Level FlightAware ADS-B
03:08PM 45.6422 -69.2154 210° Southwest 353 406 36,000  Level FlightAware ADS-B
03:09PM 45.5955 -69.2532 210° Southwest 354 407 36,000  Level FlightAware ADS-B (KBGR)
03:09PM 45.5508 -69.2894 210° Southwest 356 410 36,000  Level FlightAware ADS-B (KBGR)
03:10PM 45.5045 -69.3267 210° Southwest 357 411 36,000  Level FlightAware ADS-B (KBGR)
03:10PM 45.4780 -69.3480 210° Southwest 357 411 36,000  Level FlightAware ADS-B (CYQI)
03:10PM 45.4254 -69.3903 210° Southwest 357 411 36,000  Level FlightAware ADS-B
03:11PM 45.3733 -69.4321 209° Southwest 357 411 36,000  Level FlightAware ADS-B
03:12PM 45.3307 -69.4661 209° Southwest 358 412 36,000  Level FlightAware ADS-B (KBGR)
03:12PM 45.2885 -69.4998 209° Southwest 359 413 36,000  Level FlightAware ADS-B
03:13PM 45.2403 -69.5382 209° Southwest 359 413 36,000  Level FlightAware ADS-B
03:13PM 45.2088 -69.5634 209° Southwest 361 415 36,000  Level FlightAware ADS-B (CYQI)
03:14PM 45.1641 -69.5991 209° Southwest 361 415 36,000  Level FlightAware ADS-B (CYQI)
03:14PM 45.1151 -69.6380 209° Southwest 364 419 36,000  Level FlightAware ADS-B
03:15PM 45.0494 -69.6899 209° Southwest 364 419 36,000  Level FlightAware ADS-B (KBGR)
03:15PM 44.9934 -69.7342 209° Southwest 366 421 36,000  Level FlightAware ADS-B
03:16PM 44.9300 -69.7840 209° Southwest 364 419 36,000  Level FlightAware ADS-B
03:17PM 44.8846 -69.8196 209° Southwest 363 418 36,000  Level FlightAware ADS-B
03:17PM 44.8221 -69.8688 209° Southwest 364 419 36,000  Level FlightAware ADS-B
03:18PM 44.7784 -69.9030 209° Southwest 365 420 36,000  Level FlightAware ADS-B
03:19PM 44.7239 -69.9456 209° Southwest 366 421 36,000  Level FlightAware ADS-B (KBGR)
03:19PM 44.6774 -69.9817 209° Southwest 364 419 36,000  Level FlightAware ADS-B (CYQI)
03:20PM 44.6267 -70.0212 209° Southwest 364 419 36,000  Level FlightAware ADS-B
03:20PM 44.5778 -70.0593 209° Southwest 366 421 36,000  Level FlightAware ADS-B
03:21PM 44.5253 -70.0999 209° Southwest 367 422 36,000  Level FlightAware ADS-B
03:21PM 44.4804 -70.1346 209° Southwest 366 421 36,000  Level FlightAware ADS-B
03:22PM 44.4286 -70.1746 209° Southwest 364 419 36,000  Level FlightAware ADS-B
03:22PM 44.3732 -70.2173 209° Southwest 367 422 36,000  Level FlightAware ADS-B (KBOS)
03:23PM 44.3179 -70.2598 209° Southwest 366 421 36,000  Level FlightAware ADS-B
03:24PM 44.2733 -70.2940 209° Southwest 367 422 36,000  Level FlightAware ADS-B
03:24PM 44.2259 -70.3303 209° Southwest 366 421 36,000  Level FlightAware ADS-B (KBOS)
03:25PM 44.1804 -70.3650 209° Southwest 365 420 36,000  Level FlightAware ADS-B (KBOS)
03:25PM 44.1327 -70.4015 209° Southwest 367 422 36,000  Level FlightAware ADS-B (KBOS)
03:26PM 44.0823 -70.4399 209° Southwest 369 425 36,000  Level FlightAware ADS-B (KBOS)
03:26PM 44.0353 -70.4757 209° Southwest 371 427 36,000  Level FlightAware ADS-B (KBOS)
03:27PM 43.9936 -70.5074 209° Southwest 373 429 36,000  Level FlightAware ADS-B (KBOS)
03:27PM 43.9379 -70.5496 209° Southwest 374 430 36,000  Level FlightAware ADS-B (KBOS)
03:28PM 43.8867 -70.5883 209° Southwest 375 432 36,000  Level FlightAware ADS-B (KBOS)
03:28PM 43.8394 -70.6239 209° Southwest 373 429 36,000  Level FlightAware ADS-B (KBOS)
03:29PM 43.7957 -70.6567 209° Southwest 374 430 36,000  Level FlightAware ADS-B (KBOS)
03:29PM 43.7517 -70.6898 209° Southwest 375 432 36,000  Level FlightAware ADS-B (KBOS)
03:30PM 43.7007 -70.7281 209° Southwest 376 433 36,000  Level FlightAware ADS-B (KBOS)
03:31PM 43.6388 -70.7747 209° Southwest 371 427 36,000  Level FlightAware ADS-B (KASH)
03:31PM 43.5928 -70.8090 208° Southwest 379 436 36,000  Level FlightAware ADS-B (KBOS)
03:32PM 43.5446 -70.8448 209° Southwest 372 428 36,000  Level FlightAware ADS-B (KASH)
03:32PM 43.5240 -70.8600 209° Southwest 379 436 36,000  Level FlightAware ADS-B
03:32PM 43.4993 -70.8785 209° Southwest 372 428 36,000  Level FlightAware ADS-B (KASH)
03:33PM 43.4525 -70.9134 209° Southwest 371 427 36,000  Level FlightAware ADS-B (KASH)
03:33PM 43.4080 -70.9460 209° Southwest 379 436 36,000  Level FlightAware ADS-B
03:33PM 43.4059 -70.9479 209° Southwest 372 428 36,000  Level FlightAware ADS-B (KASH)
03:34PM 43.3368 -70.9991 208° Southwest 381 438 36,000  Level FlightAware ADS-B (KASH)
03:34PM 43.3300 -71.0040 209° Southwest 382 440 36,000  Level FlightAware ADS-B
03:34PM 43.2901 -71.0337 208° Southwest 382 440 36,000  Level FlightAware ADS-B (KBOS)
03:35PM 43.2276 -71.0797 208° Southwest 383 441 36,000  Level FlightAware ADS-B (KBOS)
03:36PM 43.1784 -71.1158 208° Southwest 383 441 36,000  Level FlightAware ADS-B (KBOS)
03:36PM 43.1292 -71.1520 208° Southwest 383 441 36,000  Level FlightAware ADS-B (KASH)
03:37PM 43.0798 -71.1881 208° Southwest 385 443 36,000  Level FlightAware ADS-B (KASH)
03:37PM 43.0198 -71.2320 208° Southwest 387 445 36,000  Level FlightAware ADS-B (KBOS)
03:38PM 42.9633 -71.2732 208° Southwest 387 445 36,000  Level FlightAware ADS-B (KASH)
03:38PM 42.9128 -71.3100 208° Southwest 388 447 36,000  Level FlightAware ADS-B (KASH)
03:39PM 42.8662 -71.3439 208° Southwest 388 447 36,000  Level FlightAware ADS-B (KASH)
03:39PM 42.8426 -71.3610 209° Southwest 382 440 36,000  Level FlightAware ADS-B (KASH)
03:40PM 42.7949 -71.3957 209° Southwest 382 440 36,000  Level FlightAware ADS-B (KASH)
03:40PM 42.7485 -71.4294 209° Southwest 383 441 36,000  Level FlightAware ADS-B (KASH)
03:41PM 42.7233 -71.4476 208° Southwest 391 450 36,000  Level FlightAware ADS-B (KBOS)
03:41PM 42.6434 -71.5052 208° Southwest 392 451 36,000  Level FlightAware ADS-B (KBOS)
03:42PM 42.5912 -71.5428 208° Southwest 393 452 36,000  Level FlightAware ADS-B (KBOS)
03:42PM 42.5546 -71.5691 209° Southwest 385 443 36,000  Level FlightAware ADS-B (KASH)
03:42PM 42.5501 -71.5723 208° Southwest 392 451 36,000  Level FlightAware ADS-B
03:43PM 42.5068 -71.6034 209° Southwest 385 443 36,000  Level FlightAware ADS-B (KASH)
03:43PM 42.4598 -71.6370 208° Southwest 383 441 36,000  Level FlightAware ADS-B (KASH)
03:44PM 42.4112 -71.6718 208° Southwest 382 440 36,000  Level FlightAware ADS-B (KASH)
03:44PM 42.3623 -71.7067 208° Southwest 382 440 36,000  Level FlightAware ADS-B (KASH)
03:45PM 42.3141 -71.7410 208° Southwest 382 440 36,000  Level FlightAware ADS-B (KASH)
03:45PM 42.2506 -71.7862 208° Southwest 389 448 36,000  Level FlightAware ADS-B
03:46PM 42.1935 -71.8266 208° Southwest 383 441 36,000  Level FlightAware ADS-B (KASH)
03:46PM 42.1442 -71.8615 208° Southwest 382 440 36,000  Level FlightAware ADS-B (KASH)
03:48PM 41.9540 -71.9958 208° Southwest 385 443 36,000  Level FlightAware ADS-B (KASH)
03:50PM 41.8379 -72.0771 208° Southwest 392 451 36,000  Level FlightAware ADS-B
03:50PM 41.7638 -72.1290 208° Southwest 386 444 36,000  Level FlightAware ADS-B (KASH)
03:51PM 41.7157 -72.1625 208° Southwest 394 453 36,000  Level FlightAware ADS-B
03:52PM 41.7127 -72.1646 208° Southwest 394 453 36,000  Level FlightAware ADS-B (KOWD)
03:53PM 41.5530 -72.2755 208° Southwest 385 443 36,000  Level FlightAware ADS-B (KASH)
03:53PM 41.4807 -72.3254 208° Southwest 390 449 36,000  Level FlightAware ADS-B
03:55PM 41.3639 -72.4060 207° Southwest 393 452 36,000  Level FlightAware ADS-B
03:55PM 41.4418 -72.3524 207° Southwest 391 450 36,000  Level FlightAware ADS-B (KOWD)
03:56PM 41.2628 -72.4731 207° Southwest 390 449 36,000  Level Boston Center
03:57PM 41.1653 -72.5419 208° Southwest 396 456 36,000  Level Boston Center
03:58PM 41.0786 -72.6283 217° Southwest 389 448 36,000  Level Boston Center
03:59PM 40.9931 -72.7139 217° Southwest 388 447 36,000  Level Boston Center
04:00PM 40.9044 -72.7992 216° Southwest 392 451 36,000  Level Boston Center
04:01PM 40.8189 -72.8864 218° Southwest 392 451 36,000  Level Boston Center
04:02PM 40.7194 -72.9836 217° Southwest 391 450 36,000  Level Boston Center
04:03PM 40.6331 -73.0683 217° Southwest 390 449 36,000  Level Boston Center
04:04PM 40.5464 -73.1519 216° Southwest 389 448 36,000  Level Boston Center
04:05PM 40.4594 -73.2361 216° Southwest 389 448 36,000  Level Boston Center
04:06PM 40.3739 -73.3194 217° Southwest 387 445 36,000  Level Boston Center
04:08PM 40.2008 -73.4703 214° Southwest 385 443 36,000  Level Washington Center
04:09PM 40.0897 -73.5594 212° Southwest 390 449 36,000  Level Boston Center
04:10PM 39.9983 -73.6342 212° Southwest 390 449 36,000  Level Boston Center
04:16PM 40.0466 -73.5951 213° Southwest 383 441 36,000  Level FlightAware ADS-B (KPHL)
04:20PM 39.1069 -74.3565 212° Southwest 385 443 36,000  Level FlightAware ADS-B (KPHL)
04:21PM 39.0442 -74.4064 212° Southwest 387 445 36,000  Level FlightAware ADS-B (KPHL)
04:21PM 38.9580 -74.4748 212° Southwest 380 437 36,000  Level FlightAware ADS-B (KWWD)
04:22PM 38.8971 -74.5230 212° Southwest 380 437 36,000  Level FlightAware ADS-B (KWWD)
04:22PM 38.8507 -74.5596 212° Southwest 380 437 36,000  Level FlightAware ADS-B (KWWD)
04:23PM 38.8049 -74.5958 212° Southwest 381 438 36,000  Level FlightAware ADS-B (KWWD)
04:23PM 38.7578 -74.6330 212° Southwest 380 437 36,000  Level FlightAware ADS-B (KWWD)
04:24PM 38.7156 -74.6662 212° Southwest 387 445 36,000  Level FlightAware ADS-B
04:25PM 38.6559 -74.7132 212° Southwest 388 447 36,000  Level FlightAware ADS-B
04:26PM 38.5724 -74.7785 212° Southwest 387 445 36,000  Level FlightAware ADS-B
04:27PM 38.4617 -74.8650 212° Southwest 382 440 36,000  Level FlightAware ADS-B (KWWD)
04:28PM 38.3637 -74.9413 211° Southwest 389 448 36,000  Level FlightAware ADS-B
04:30PM 38.1185 -75.1313 212° Southwest 383 441 36,000  Level FlightAware ADS-B (KWWD)
04:32PM 38.0017 -75.2256 210° Southwest 385 443 36,000  Level Washington Center
04:33PM 37.9078 -75.2997 212° Southwest 385 443 36,000  Level Washington Center
04:34PM 37.8142 -75.3711 211° Southwest 390 449 36,000  Level Washington Center
04:35PM 37.7206 -75.4422 211° Southwest 390 449 36,000  Level Washington Center
04:36PM 37.6247 -75.5131 210° Southwest 395 455 36,000  Level Washington Center
04:37PM 37.6322 -75.5008 210° Southwest  Level FlightAware Approximate
04:37PM 37.5286 -75.5867 211° Southwest 400 460 36,000  Level Washington Center
04:38PM 37.4347 -75.6572 211° Southwest 405 466 36,000  Level Washington Center
04:39PM 37.3431 -75.7278 211° Southwest 405 466 36,000  Level Washington Center
04:40PM 37.2469 -75.7981 210° Southwest 405 466 36,000  Level Washington Center
04:41PM 37.1531 -75.8681 211° Southwest 405 466 36,000  Level Washington Center
04:42PM 37.0608 -75.9381 211° Southwest 405 466 36,000  Level Washington Center
04:43PM 36.9731 -75.9975 208° Southwest 405 466 36,000  Level Washington Center
04:44PM 36.8769 -76.0669 210° Southwest 405 466 36,000  Level Washington Center
04:45PM 36.7847 -76.1364 211° Southwest 400 460 36,000  Level Washington Center
04:47PM 36.5983 -76.2775 211° Southwest 400 460 36,000  Level Washington Center
04:48PM 36.5061 -76.3464 211° Southwest 400 460 36,000  Level Washington Center
04:50PM 36.3197 -76.4814 210° Southwest 400 460 36,000  Level Washington Center
04:51PM 36.2231 -76.5497 210° Southwest 400 460 36,000  Level Washington Center
04:52PM 36.1308 -76.6156 210° Southwest 400 460 36,000  Level Washington Center
04:53PM 36.0364 -76.6836 210° Southwest 400 460 36,000  Level Washington Center
04:54PM 35.9397 -76.7517 210° Southwest 400 460 36,000  Level Washington Center
04:55PM 35.8450 -76.8194 210° Southwest 400 460 36,000  Level Washington Center
04:56PM 35.7483 -76.8869 210° Southwest 400 460 36,000  Level Washington Center
04:58PM 35.5547 -77.0319 210° Southwest 393 452 36,000  Level Washington Center
04:59PM 35.4600 -77.0992 210° Southwest 393 452 36,000  Level Washington Center
05:00PM 35.3633 -77.1661 209° Southwest 393 452 36,000  Level Washington Center
05:01PM 35.2664 -77.2353 210° Southwest 399 459 36,000  Level Washington Center
05:02PM 35.1714 -77.3047 211° Southwest 399 459 36,000  Level Washington Center
05:03PM 35.0725 -77.3711 209° Southwest 404 465 36,000  Level Washington Center
05:04PM 34.9756 -77.4372 209° Southwest 404 465 36,000  Level Washington Center
05:06PM 34.7939 -77.5697 211° Southwest 410 472 36,000  Level Washington Center
05:08PM 34.6524 -77.6356 201° Southwest  Level Estimated
05:08PM 34.6061 -77.7017 201° Southwest 410 472 36,000  Level Washington Center
05:09PM 34.5108 -77.7697 210° Southwest 410 472 36,000  Level Washington Center
05:10PM 34.4158 -77.8350 210° Southwest 410 472 36,000  Level Washington Center
05:11PM 34.3125 -77.8875 203° Southwest 404 465 36,000  Level Washington Center
05:12PM 34.1950 -77.9194 193° South 415 478 36,000 -180 Level Washington Center
05:14PM 33.9789 -77.9844 194° South 408 470 35,500 -480 Descending Jacksonville Center
05:15PM 33.8631 -78.0133 192° South 415 478 34,700 -780 Descending Jacksonville Center
05:16PM 33.7456 -78.0497 194° South 429 494 34,000 -360 Descending Jacksonville Center
05:17PM 33.6300 -78.0836 194° South 434 499 34,000  Level Jacksonville Center
05:18PM 33.5164 -78.1172 194° South 428 493 34,000  Level Jacksonville Center
05:19PM 33.4008 -78.1483 193° South 428 493 34,000  Level Jacksonville Center
05:20PM 33.2853 -78.1817 194° South 428 493 34,000  Level Jacksonville Center
05:22PM 33.0561 -78.2483 194° South 428 493 34,000  Level Jacksonville Center
05:23PM 32.9403 -78.2767 192° South 428 493 34,000  Level Jacksonville Center
05:24PM 32.8203 -78.3100 193° South 428 493 34,000  Level Jacksonville Center
05:25PM 32.7047 -78.3453 194° South 428 493 34,000  Level Jacksonville Center
05:26PM 32.5889 -78.3758 193° South 428 493 34,000  Level Jacksonville Center
05:27PM 32.4733 -78.4086 193° South 433 498 34,000  Level Jacksonville Center
05:28PM 32.3575 -78.4414 193° South 433 498 34,000  Level Jacksonville Center
05:29PM 32.2400 -78.4814 196° South 433 498 34,000  Level Jacksonville Center
05:30PM 32.1222 -78.5142 193° South 433 498 34,000  Level Jacksonville Center
05:31PM 32.0044 -78.5467 193° South 433 498 34,000  Level Jacksonville Center
05:32PM 31.8906 -78.5814 195° South 433 498 34,000  Level Jacksonville Center
05:33PM 31.7606 -78.6192 194° South 426 490 34,000  Level Jacksonville Center
05:34PM 31.6447 -78.6539 194° South 431 496 34,000  Level Jacksonville Center
05:35PM 31.5228 -78.6886 194° South 446 513 34,000  Level Jacksonville Center
05:36PM 31.4047 -78.7208 193° South 446 513 34,000  Level Jacksonville Center
05:38PM 31.1669 -78.7897 194° South 446 513 34,000  Level Jacksonville Center
05:39PM 31.0508 -78.8164 191° South 446 513 34,000  Level Jacksonville Center
05:40PM 30.9331 -78.8531 195° South 446 513 34,000  Level Jacksonville Center
05:41PM 30.8111 -78.8897 194° South 446 513 34,000  Level Jacksonville Center
05:42PM 30.6383 -78.9378 193° South 456 525 34,000  Level Miami Center
05:43PM 30.5189 -78.9692 193° South 451 519 34,000  Level Miami Center
05:44PM 30.4058 -79.0150 199° South 445 512 34,000  Level Miami Center
05:46PM 30.1708 -79.1039 198° South 445 512 34,000  Level Miami Center
05:47PM 30.0578 -79.1494 199° South 445 512 34,000  Level Miami Center
05:48PM 29.9442 -79.1972 200° South 438 504 34,000  Level Miami Center
05:49PM 29.8269 -79.2403 198° South 443 510 34,000  Level Miami Center
05:50PM 29.7114 -79.2806 197° South 443 510 34,000  Level Miami Center
05:51PM 29.5981 -79.3283 200° South 443 510 34,000  Level Miami Center
05:52PM 29.4806 -79.3708 197° South 448 516 34,000  Level Miami Center
05:58PM 28.8286 -79.6131 198° South 430 495 34,000  Level FlightAware ADS-B (KMCO)
05:59PM 28.6787 -79.6691 198° South 431 496 34,000  Level FlightAware ADS-B (KMCO)
06:01PM 28.4953 -79.7376 198° South 429 494 34,000  Level FlightAware ADS-B (KMCO)
06:01PM 28.4385 -79.7586 198° South 429 494 34,000  Level FlightAware ADS-B (KMCO)
06:02PM 28.3642 -79.7862 198° South 426 490 34,000  Level FlightAware ADS-B (KMCO)
06:03PM 28.2676 -79.8220 198° South 424 488 34,000  Level FlightAware ADS-B (KMCO)
06:03PM 28.2090 -79.8438 198° South 425 489 34,000  Level FlightAware ADS-B (KMCO)
06:04PM 28.1233 -79.8754 198° South 428 493 34,000  Level FlightAware ADS-B (KMCO)
06:05PM 27.9833 -79.9270 198° South 429 494 34,000  Level FlightAware ADS-B (KMCO)
06:06PM 27.9316 -79.9460 198° South 430 495 34,000  Level FlightAware ADS-B (KMCO)
06:07PM 27.8578 -79.9731 198° South 431 496 34,000  Level FlightAware ADS-B (KMCO)
06:07PM 27.7902 -79.9980 198° South 431 496 34,000  Level FlightAware ADS-B (KMCO)
06:08PM 27.7307 -80.0198 198° South 430 495 34,000  Level FlightAware ADS-B (KMCO)
06:08PM 27.6625 -80.0447 198° South 429 494 34,000  Level FlightAware ADS-B (KMCO)
06:09PM 27.6051 -80.0657 198° South 427 491 34,000  Level FlightAware ADS-B (KMCO)
06:09PM 27.5424 -80.0886 198° South 428 493 34,000  Level FlightAware ADS-B (KMCO)
06:10PM 27.4860 -80.1093 198° South 429 494 34,000  Level FlightAware ADS-B (KMCO)
06:10PM 27.4267 -80.1308 198° South 428 493 34,000  Level FlightAware ADS-B (KMCO)
06:11PM 27.3663 -80.1528 198° South 428 493 34,000  Level FlightAware ADS-B (KMCO)
06:12PM 27.2919 -80.1799 198° South 428 493 34,000  Level FlightAware ADS-B (KMCO)
06:12PM 27.2242 -80.2045 198° South 429 494 34,000  Level FlightAware ADS-B (RJTF)
06:13PM 27.1412 -80.2346 198° South 429 494 34,000  Level FlightAware ADS-B (KMCO)
06:13PM 27.0814 -80.2562 198° South 428 493 34,000  Level FlightAware ADS-B (RJTF)
06:14PM 27.0336 -80.2735 198° South 427 491 34,000  Level FlightAware ADS-B (RJTF)
06:14PM 26.9634 -80.2989 198° South 426 490 34,000  Level FlightAware ADS-B (RJTF)
06:15PM 26.9091 -80.3185 198° South 427 491 34,000  Level FlightAware ADS-B (RJTF)
06:15PM 26.8558 -80.3377 198° South 428 493 34,000  Level FlightAware ADS-B (RJTF)
06:16PM 26.7803 -80.3648 198° South 426 490 34,000  Level FlightAware ADS-B (KMCO)
06:16PM 26.7245 -80.3849 198° South 425 489 34,000  Level FlightAware ADS-B (KMCO)
06:17PM 26.6569 -80.4091 198° South 424 488 34,000  Level FlightAware ADS-B (RJTF)
06:18PM 26.5961 -80.4310 198° South 425 489 34,000  Level FlightAware ADS-B (RJTF)
06:18PM 26.5413 -80.4506 198° South 424 488 34,000  Level FlightAware ADS-B (RJTF)
06:19PM 26.4652 -80.4778 198° South 423 487 34,000  Level FlightAware ADS-B (RJTF)
06:19PM 26.4089 -80.4983 198° South 428 493 34,000  Level Miami Center
06:19PM 26.4080 -80.4983 198° South 423 487 34,000  Level FlightAware ADS-B (RJTF)
06:20PM 26.3369 -80.5238 198° South 425 489 34,000  Level FlightAware ADS-B (RJTF)
06:20PM 26.2992 -80.5392 198° South 428 493 34,000  Level Miami Center
06:21PM 26.2025 -80.5708 196° South 421 484 34,000  Level Miami Center
06:22PM 26.0886 -80.6136 199° South 426 490 34,000  Level Miami Center
06:23PM 25.9769 -80.6539 198° South 426 490 34,000  Level Miami Center
06:24PM 25.8650 -80.6942 198° South 426 490 34,000  Level Miami Center
06:25PM 25.9489 -80.6504 198° South  Level FlightAware Approximate
06:25PM 25.7511 -80.7367 199° South 426 490 34,000  Level Miami Center
06:26PM 25.6353 -80.7767 197° South 426 490 34,000  Level Miami Center
06:27PM 25.5217 -80.8100 195° South 426 490 34,000  Level Miami Center
06:28PM 25.3933 -80.8425 193° South 426 490 34,000  Level Miami Center
06:29PM 25.2775 -80.8733 194° South 426 490 34,000 -660 Level Miami Center
06:31PM 25.0461 -80.9367 194° South 431 496 32,100 -1,020 Descending Miami Center
06:32PM 24.9344 -80.9672 194° South 431 496 31,100 -1,020 Descending Miami Center
06:33PM 24.8189 -80.9956 193° South 426 490 30,100 -1,020 Descending Miami Center
06:34PM 24.7114 -81.0261 194° South 419 482 29,100 -1,020 Descending Miami Center
06:35PM 24.6019 -81.0544 193° South 414 476 28,100 -960 Descending Miami Center
06:36PM 24.4947 -81.0850 195° South 414 476 27,200 -960 Descending Miami Center
06:37PM 24.3894 -81.1133 194° South 403 464 26,200 -1,020 Descending Miami Center
06:38PM 24.2842 -81.1442 195° South 398 458 25,200 -600 Descending Miami Center
06:39PM 24.1811 -81.1678 192° South 392 451 25,000 -120 Descending Miami Center
06:40PM 24.0778 -81.1983 195° South 387 445 25,000  Level Miami Center
06:42PM 23.9715 -81.2233 192° South  Level FlightAware Approximate
06:49PM 23.3441 -81.3646 194° South  Level FlightAware Approximate
06:50PM 23.2551 -81.3879 193° South  Level FlightAware Approximate
06:51PM 23.1661 -81.4111 193° South  Level FlightAware Approximate
06:52PM 23.0771 -81.4343 193° South  Level FlightAware Approximate
06:53PM 23.0104 -81.4812 258° West  Level FlightAware Approximate
06:54PM 22.9958 -81.5792 264° West  Level FlightAware Approximate
06:55PM 22.9869 -81.6781 264° West  Level FlightAware Approximate
06:56PM 22.9707 -81.7758 257° West  Level FlightAware Approximate
06:57PM 22.9500 -81.8726 257° West  Level FlightAware Approximate
06:58PM 22.9333 -81.9699 270° West  Level FlightAware Approximate
06:59PM 22.9333 -82.0692 270° West  Level FlightAware Approximate
07:00PM 22.9459 -82.1668 285° West  Level FlightAware Approximate
07:01PM 22.9596 -82.2645 282° West  Level FlightAware Approximate
07:02PM 22.9667 -82.3631 270° West  Level FlightAware Approximate
07:03PM 22.9891 -82.4091 270° West  Level Estimated
07:04PM 22.9891 -82.4091 160° South  Level Estimated
07:05PM 22.9891 -82.4091 160° South  Level Estimated
07:06PM 22.9891 -82.4091 160° South  Level Estimated
07:07PM 22.9891 -82.4091 160° South  Level Estimated
07:08PM 22.9891 -82.4091 160° South  Level Estimated
07:09PM 22.9891 -82.4091 160° South  Level Estimated
07:10PM 22.9891 -82.4091 160° South  Level Estimated
07:11PM 22.9891 -82.4091 160° South  Level Estimated
07:12PM 22.9891 -82.4091 160° South  Level Estimated
07:13PM 22.9891 -82.4091 160° South  Level Estimated
07:14PM 22.9891 -82.4091 160° South  Level Estimated
07:15PM 22.9891 -82.4091 160° South  Level Estimated
07:16PM 22.9891 -82.4091 160° South  Level Estimated
07:17PM 22.9891 -82.4091 160° South  Level Estimated
07:18PM 22.9891 -82.4091 160° South  Level Estimated
07:19PM 22.9891 -82.4091 160° South  Level Estimated
07:20PM 22.9891 -82.4091 160° South  Level Estimated